sensor_id;sensor_type;location;lat;lon;timestamp;pressure;altitude;pressure_sealevel;temperature;humidity
70916;BME280;58557;50.982;-3.222;2022-10-23T00:02:06;99860.19;;;19.74;57.46
70916;BME280;58557;50.982;-3.222;2022-10-23T00:04:32;99856.67;;;19.61;57.88
70916;BME280;58557;50.982;-3.222;2022-10-23T00:06:57;99855.52;;;19.53;56.71
70916;BME280;58557;50.982;-3.222;2022-10-23T00:09:23;99850.62;;;19.44;57.59
70916;BME280;58557;50.982;-3.222;2022-10-23T00:11:49;99857.88;;;20.28;53.93
70916;BME280;58557;50.982;-3.222;2022-10-23T00:14:14;99851.08;;;20.51;53.21
70916;BME280;58557;50.982;-3.222;2022-10-23T00:16:39;99848.10;;;18.93;55.89
70916;BME280;58557;50.982;-3.222;2022-10-23T00:19:04;99848.34;;;19.93;54.25
70916;BME280;58557;50.982;-3.222;2022-10-23T00:21:30;99844.80;;;19.94;54.19
70916;BME280;58557;50.982;-3.222;2022-10-23T00:23:55;99839.02;;;20.78;52.52
70916;BME280;58557;50.982;-3.222;2022-10-23T00:26:21;99835.33;;;20.52;52.74
70916;BME280;58557;50.982;-3.222;2022-10-23T00:28:49;99824.84;;;20.37;53.11
70916;BME280;58557;50.982;-3.222;2022-10-23T00:31:12;99816.01;;;20.62;52.72
70916;BME280;58557;50.982;-3.222;2022-10-23T00:33:38;99809.74;;;19.73;54.12
70916;BME280;58557;50.982;-3.222;2022-10-23T00:36:05;99809.01;;;19.50;55.80
70916;BME280;58557;50.982;-3.222;2022-10-23T00:38:29;99800.36;;;19.61;56.05
70916;BME280;58557;50.982;-3.222;2022-10-23T00:40:55;99793.28;;;19.02;56.19
70916;BME280;58557;50.982;-3.222;2022-10-23T00:43:22;99791.23;;;20.24;54.75
70916;BME280;58557;50.982;-3.222;2022-10-23T00:45:46;99778.24;;;20.37;53.98
70916;BME280;58557;50.982;-3.222;2022-10-23T00:48:11;99770.50;;;19.88;53.99
70916;BME280;58557;50.982;-3.222;2022-10-23T00:50:37;99755.71;;;20.21;53.75
70916;BME280;58557;50.982;-3.222;2022-10-23T00:53:03;99739.47;;;20.53;52.28
70916;BME280;58557;50.982;-3.222;2022-10-23T00:55:29;99741.22;;;20.02;52.53
70916;BME280;58557;50.982;-3.222;2022-10-23T00:57:54;99744.97;;;20.83;51.56
70916;BME280;58557;50.982;-3.222;2022-10-23T01:00:21;99734.12;;;20.85;51.54
70916;BME280;58557;50.982;-3.222;2022-10-23T01:02:44;99733.06;;;20.83;50.94
70916;BME280;58557;50.982;-3.222;2022-10-23T01:05:10;99727.40;;;20.53;51.66
70916;BME280;58557;50.982;-3.222;2022-10-23T01:07:40;99724.20;;;20.74;52.30
70916;BME280;58557;50.982;-3.222;2022-10-23T01:10:07;99723.87;;;19.64;55.19
70916;BME280;58557;50.982;-3.222;2022-10-23T01:12:31;99718.17;;;18.46;58.48
70916;BME280;58557;50.982;-3.222;2022-10-23T01:14:59;99721.13;;;18.23;59.87
70916;BME280;58557;50.982;-3.222;2022-10-23T01:17:22;99721.61;;;18.82;57.31
70916;BME280;58557;50.982;-3.222;2022-10-23T01:19:50;99714.46;;;18.83;57.34
70916;BME280;58557;50.982;-3.222;2022-10-23T01:22:14;99708.10;;;19.40;56.80
70916;BME280;58557;50.982;-3.222;2022-10-23T01:24:42;99696.15;;;19.08;57.43
70916;BME280;58557;50.982;-3.222;2022-10-23T01:27:12;99682.27;;;18.50;59.43
70916;BME280;58557;50.982;-3.222;2022-10-23T01:29:30;99660.66;;;18.16;60.88
70916;BME280;58557;50.982;-3.222;2022-10-23T01:31:54;99646.35;;;17.69;62.76
70916;BME280;58557;50.982;-3.222;2022-10-23T01:34:19;99648.90;;;17.29;62.36
70916;BME280;58557;50.982;-3.222;2022-10-23T01:36:45;99634.22;;;17.74;61.62
70916;BME280;58557;50.982;-3.222;2022-10-23T01:39:11;99624.16;;;17.56;63.19
70916;BME280;58557;50.982;-3.222;2022-10-23T01:41:35;99621.96;;;17.09;65.55
70916;BME280;58557;50.982;-3.222;2022-10-23T01:44:03;99617.00;;;16.65;67.19
70916;BME280;58557;50.982;-3.222;2022-10-23T01:46:24;99616.61;;;16.35;68.04
70916;BME280;58557;50.982;-3.222;2022-10-23T01:48:51;99618.31;;;16.80;66.75
70916;BME280;58557;50.982;-3.222;2022-10-23T01:51:16;99625.33;;;16.98;66.38
70916;BME280;58557;50.982;-3.222;2022-10-23T01:53:43;99626.65;;;17.92;63.51
70916;BME280;58557;50.982;-3.222;2022-10-23T01:56:08;99623.08;;;17.92;62.09
70916;BME280;58557;50.982;-3.222;2022-10-23T01:58:32;99618.33;;;18.41;61.97
70916;BME280;58557;50.982;-3.222;2022-10-23T02:00:59;99625.30;;;18.46;60.12
70916;BME280;58557;50.982;-3.222;2022-10-23T02:03:22;99608.72;;;17.75;61.70
70916;BME280;58557;50.982;-3.222;2022-10-23T02:05:47;99615.38;;;18.72;59.37
70916;BME280;58557;50.982;-3.222;2022-10-23T02:08:13;99612.12;;;19.10;58.23
70916;BME280;58557;50.982;-3.222;2022-10-23T02:10:43;99606.03;;;19.10;57.13
70916;BME280;58557;50.982;-3.222;2022-10-23T02:13:07;99593.76;;;19.28;56.18
70916;BME280;58557;50.982;-3.222;2022-10-23T02:15:33;99582.46;;;18.97;57.13
70916;BME280;58557;50.982;-3.222;2022-10-23T02:18:01;99570.76;;;18.69;57.51
70916;BME280;58557;50.982;-3.222;2022-10-23T02:20:24;99563.36;;;18.59;58.65
70916;BME280;58557;50.982;-3.222;2022-10-23T02:22:53;99567.45;;;17.85;60.93
70916;BME280;58557;50.982;-3.222;2022-10-23T02:25:14;99558.97;;;17.91;62.74
70916;BME280;58557;50.982;-3.222;2022-10-23T02:27:39;99554.58;;;17.85;62.72
70916;BME280;58557;50.982;-3.222;2022-10-23T02:30:05;99557.85;;;18.41;60.95
70916;BME280;58557;50.982;-3.222;2022-10-23T02:32:29;99539.48;;;19.17;58.52
70916;BME280;58557;50.982;-3.222;2022-10-23T02:34:54;99528.83;;;17.82;61.26
70916;BME280;58557;50.982;-3.222;2022-10-23T02:37:19;99541.18;;;18.40;60.29
70916;BME280;58557;50.982;-3.222;2022-10-23T02:39:44;99550.22;;;18.42;60.36
70916;BME280;58557;50.982;-3.222;2022-10-23T02:42:15;99564.49;;;19.09;58.60
70916;BME280;58557;50.982;-3.222;2022-10-23T02:44:42;99557.92;;;17.36;62.13
70916;BME280;58557;50.982;-3.222;2022-10-23T02:47:09;99579.29;;;16.09;66.74
70916;BME280;58557;50.982;-3.222;2022-10-23T02:49:32;99636.03;;;18.50;60.09
70916;BME280;58557;50.982;-3.222;2022-10-23T02:51:59;99611.19;;;17.97;61.66
70916;BME280;58557;50.982;-3.222;2022-10-23T02:54:22;99581.37;;;19.23;60.09
70916;BME280;58557;50.982;-3.222;2022-10-23T02:56:46;99559.19;;;18.07;63.19
70916;BME280;58557;50.982;-3.222;2022-10-23T02:59:12;99543.67;;;17.72;64.62
70916;BME280;58557;50.982;-3.222;2022-10-23T03:01:38;99546.89;;;18.35;62.56
70916;BME280;58557;50.982;-3.222;2022-10-23T03:04:02;99552.68;;;18.16;62.56
70916;BME280;58557;50.982;-3.222;2022-10-23T03:06:25;99578.96;;;16.93;64.11
70916;BME280;58557;50.982;-3.222;2022-10-23T03:08:56;99632.45;;;15.70;71.65
70916;BME280;58557;50.982;-3.222;2022-10-23T03:11:15;99620.88;;;14.24;76.98
70916;BME280;58557;50.982;-3.222;2022-10-23T03:13:41;99613.68;;;15.84;73.07
70916;BME280;58557;50.982;-3.222;2022-10-23T03:16:07;99599.84;;;17.69;66.15
70916;BME280;58557;50.982;-3.222;2022-10-23T03:18:33;99569.14;;;17.90;64.93
70916;BME280;58557;50.982;-3.222;2022-10-23T03:20:58;99562.44;;;18.94;60.63
70916;BME280;58557;50.982;-3.222;2022-10-23T03:23:24;99565.01;;;19.34;58.60
70916;BME280;58557;50.982;-3.222;2022-10-23T03:25:50;99580.43;;;19.04;57.08
70916;BME280;58557;50.982;-3.222;2022-10-23T03:28:15;99571.81;;;18.64;55.54
70916;BME280;58557;50.982;-3.222;2022-10-23T03:30:41;99570.68;;;18.35;57.25
70916;BME280;58557;50.982;-3.222;2022-10-23T03:33:06;99563.44;;;18.47;58.00
70916;BME280;58557;50.982;-3.222;2022-10-23T03:35:32;99548.49;;;17.99;58.08
70916;BME280;58557;50.982;-3.222;2022-10-23T03:37:57;99549.70;;;18.40;59.00
70916;BME280;58557;50.982;-3.222;2022-10-23T03:40:23;99545.42;;;17.78;58.61
70916;BME280;58557;50.982;-3.222;2022-10-23T03:42:49;99539.64;;;17.83;59.01
70916;BME280;58557;50.982;-3.222;2022-10-23T03:45:14;99530.25;;;18.33;57.41
70916;BME280;58557;50.982;-3.222;2022-10-23T03:47:40;99511.51;;;17.43;60.26
70916;BME280;58557;50.982;-3.222;2022-10-23T03:50:07;99488.41;;;16.94;61.72
70916;BME280;58557;50.982;-3.222;2022-10-23T03:52:32;99483.84;;;16.79;61.81
70916;BME280;58557;50.982;-3.222;2022-10-23T03:54:57;99464.18;;;16.23;63.45
70916;BME280;58557;50.982;-3.222;2022-10-23T03:57:23;99446.06;;;15.73;65.55
70916;BME280;58557;50.982;-3.222;2022-10-23T03:59:49;99424.02;;;16.49;63.12
70916;BME280;58557;50.982;-3.222;2022-10-23T04:02:14;99417.40;;;15.78;65.00
70916;BME280;58557;50.982;-3.222;2022-10-23T04:04:40;99423.77;;;17.01;60.95
70916;BME280;58557;50.982;-3.222;2022-10-23T04:07:06;99420.70;;;17.51;59.81
70916;BME280;58557;50.982;-3.222;2022-10-23T04:09:32;99423.65;;;17.01;60.63
70916;BME280;58557;50.982;-3.222;2022-10-23T04:11:57;99451.51;;;16.82;61.19
70916;BME280;58557;50.982;-3.222;2022-10-23T04:14:24;99450.23;;;16.60;61.53
70916;BME280;58557;50.982;-3.222;2022-10-23T04:16:49;99465.27;;;16.53;61.81
70916;BME280;58557;50.982;-3.222;2022-10-23T04:19:14;99462.57;;;16.79;60.29
70916;BME280;58557;50.982;-3.222;2022-10-23T04:21:40;99446.31;;;17.66;59.27
70916;BME280;58557;50.982;-3.222;2022-10-23T04:24:06;99463.14;;;17.63;58.70
70916;BME280;58557;50.982;-3.222;2022-10-23T04:26:32;99472.67;;;17.86;58.11
70916;BME280;58557;50.982;-3.222;2022-10-23T04:28:57;99451.13;;;17.53;58.02
70916;BME280;58557;50.982;-3.222;2022-10-23T04:31:23;99446.13;;;18.13;57.19
70916;BME280;58557;50.982;-3.222;2022-10-23T04:33:49;99445.00;;;17.89;57.74
70916;BME280;58557;50.982;-3.222;2022-10-23T04:36:14;99418.45;;;18.24;56.13
70916;BME280;58557;50.982;-3.222;2022-10-23T04:38:40;99428.38;;;17.06;60.11
70916;BME280;58557;50.982;-3.222;2022-10-23T04:41:06;99465.50;;;17.19;59.91
70916;BME280;58557;50.982;-3.222;2022-10-23T04:43:32;99497.47;;;17.08;58.96
70916;BME280;58557;50.982;-3.222;2022-10-23T04:45:57;99494.19;;;18.17;58.19
70916;BME280;58557;50.982;-3.222;2022-10-23T04:48:23;99495.35;;;18.67;56.22
70916;BME280;58557;50.982;-3.222;2022-10-23T04:50:55;99501.55;;;18.70;55.75
70916;BME280;58557;50.982;-3.222;2022-10-23T04:53:14;99495.39;;;18.75;55.06
70916;BME280;58557;50.982;-3.222;2022-10-23T04:55:47;99490.80;;;19.29;53.73
70916;BME280;58557;50.982;-3.222;2022-10-23T04:58:06;99481.60;;;19.40;54.20
70916;BME280;58557;50.982;-3.222;2022-10-23T05:00:32;99473.13;;;18.88;54.65
70916;BME280;58557;50.982;-3.222;2022-10-23T05:02:57;99456.27;;;19.11;53.75
70916;BME280;58557;50.982;-3.222;2022-10-23T05:05:23;99450.57;;;18.80;54.26
70916;BME280;58557;50.982;-3.222;2022-10-23T05:07:49;99446.20;;;19.17;54.54
70916;BME280;58557;50.982;-3.222;2022-10-23T05:10:14;99452.47;;;17.32;59.41
70916;BME280;58557;50.982;-3.222;2022-10-23T05:12:40;99456.15;;;18.57;57.19
70916;BME280;58557;50.982;-3.222;2022-10-23T05:15:06;99452.77;;;19.16;54.12
70916;BME280;58557;50.982;-3.222;2022-10-23T05:17:34;99453.26;;;19.52;53.85
70916;BME280;58557;50.982;-3.222;2022-10-23T05:19:59;99441.89;;;19.60;53.48
70916;BME280;58557;50.982;-3.222;2022-10-23T05:22:25;99414.68;;;19.18;54.68
70916;BME280;58557;50.982;-3.222;2022-10-23T05:24:49;99391.65;;;17.97;57.01
70916;BME280;58557;50.982;-3.222;2022-10-23T05:27:14;99396.44;;;16.62;61.84
70916;BME280;58557;50.982;-3.222;2022-10-23T05:29:40;99395.36;;;17.37;59.65
70916;BME280;58557;50.982;-3.222;2022-10-23T05:32:08;99396.84;;;17.86;59.46
70916;BME280;58557;50.982;-3.222;2022-10-23T05:34:34;99397.60;;;16.99;62.08
70916;BME280;58557;50.982;-3.222;2022-10-23T05:36:57;99412.71;;;17.99;59.32
70916;BME280;58557;50.982;-3.222;2022-10-23T05:39:23;99421.25;;;18.35;57.59
70916;BME280;58557;50.982;-3.222;2022-10-23T05:41:49;99409.16;;;18.80;56.23
70916;BME280;58557;50.982;-3.222;2022-10-23T05:44:14;99393.64;;;18.77;55.99
70916;BME280;58557;50.982;-3.222;2022-10-23T05:46:40;99394.07;;;17.97;59.62
70916;BME280;58557;50.982;-3.222;2022-10-23T05:49:06;99395.98;;;17.49;60.11
70916;BME280;58557;50.982;-3.222;2022-10-23T05:51:35;99379.79;;;16.73;64.37
70916;BME280;58557;50.982;-3.222;2022-10-23T05:53:57;99371.56;;;16.38;65.08
70916;BME280;58557;50.982;-3.222;2022-10-23T05:56:22;99371.15;;;15.70;68.95
70916;BME280;58557;50.982;-3.222;2022-10-23T05:58:47;99360.59;;;15.55;70.44
70916;BME280;58557;50.982;-3.222;2022-10-23T06:01:14;99349.26;;;15.55;71.20
70916;BME280;58557;50.982;-3.222;2022-10-23T06:03:39;99339.66;;;15.22;74.04
70916;BME280;58557;50.982;-3.222;2022-10-23T06:06:06;99339.66;;;15.12;73.82
70916;BME280;58557;50.982;-3.222;2022-10-23T06:08:31;99339.27;;;14.87;75.43
70916;BME280;58557;50.982;-3.222;2022-10-23T06:10:56;99323.38;;;14.85;74.85
70916;BME280;58557;50.982;-3.222;2022-10-23T06:13:22;99309.74;;;13.94;78.85
70916;BME280;58557;50.982;-3.222;2022-10-23T06:15:47;99304.00;;;14.22;79.41
70916;BME280;58557;50.982;-3.222;2022-10-23T06:18:13;99293.29;;;14.45;79.76
70916;BME280;58557;50.982;-3.222;2022-10-23T06:20:40;99281.70;;;14.98;77.13
70916;BME280;58557;50.982;-3.222;2022-10-23T06:23:05;99269.21;;;14.02;80.01
70916;BME280;58557;50.982;-3.222;2022-10-23T06:25:31;99263.90;;;14.34;77.77
70916;BME280;58557;50.982;-3.222;2022-10-23T06:27:56;99254.92;;;14.41;77.97
70916;BME280;58557;50.982;-3.222;2022-10-23T06:30:22;99252.61;;;14.08;80.13
70916;BME280;58557;50.982;-3.222;2022-10-23T06:32:47;99256.74;;;14.71;77.07
70916;BME280;58557;50.982;-3.222;2022-10-23T06:35:13;99264.73;;;14.83;75.21
70916;BME280;58557;50.982;-3.222;2022-10-23T06:37:39;99264.35;;;15.94;71.95
70916;BME280;58557;50.982;-3.222;2022-10-23T06:40:06;99261.21;;;15.20;73.97
70916;BME280;58557;50.982;-3.222;2022-10-23T06:42:30;99250.02;;;15.28;73.20
70916;BME280;58557;50.982;-3.222;2022-10-23T06:44:56;99264.78;;;15.43;73.05
70916;BME280;58557;50.982;-3.222;2022-10-23T06:47:21;99258.53;;;16.28;69.50
70916;BME280;58557;50.982;-3.222;2022-10-23T06:49:47;99252.59;;;15.15;73.87
70916;BME280;58557;50.982;-3.222;2022-10-23T06:52:13;99251.05;;;14.90;74.45
70916;BME280;58557;50.982;-3.222;2022-10-23T06:54:38;99243.96;;;14.86;75.81
70916;BME280;58557;50.982;-3.222;2022-10-23T06:57:04;99246.49;;;14.87;75.07
70916;BME280;58557;50.982;-3.222;2022-10-23T06:59:30;99250.94;;;14.47;76.39
70916;BME280;58557;50.982;-3.222;2022-10-23T07:01:56;99250.04;;;15.50;72.61
70916;BME280;58557;50.982;-3.222;2022-10-23T07:04:21;99243.20;;;15.69;70.51
70916;BME280;58557;50.982;-3.222;2022-10-23T07:06:47;99243.56;;;16.54;68.19
70916;BME280;58557;50.982;-3.222;2022-10-23T07:09:12;99257.17;;;17.25;63.88
70916;BME280;58557;50.982;-3.222;2022-10-23T07:11:38;99257.76;;;18.29;61.32
70916;BME280;58557;50.982;-3.222;2022-10-23T07:14:04;99261.06;;;18.32;61.36
70916;BME280;58557;50.982;-3.222;2022-10-23T07:16:29;99256.53;;;17.95;61.32
70916;BME280;58557;50.982;-3.222;2022-10-23T07:18:57;99261.09;;;18.54;60.59
70916;BME280;58557;50.982;-3.222;2022-10-23T07:21:21;99247.91;;;18.55;59.47
70916;BME280;58557;50.982;-3.222;2022-10-23T07:23:47;99249.82;;;18.12;60.71
70916;BME280;58557;50.982;-3.222;2022-10-23T07:26:14;99255.34;;;17.94;59.80
70916;BME280;58557;50.982;-3.222;2022-10-23T07:28:38;99261.56;;;18.82;59.50
70916;BME280;58557;50.982;-3.222;2022-10-23T07:31:04;99274.97;;;18.30;58.71
70916;BME280;58557;50.982;-3.222;2022-10-23T07:33:29;99298.81;;;17.52;61.35
70916;BME280;58557;50.982;-3.222;2022-10-23T07:35:56;99316.39;;;17.66;61.12
70916;BME280;58557;50.982;-3.222;2022-10-23T07:38:20;99314.90;;;17.68;60.56
70916;BME280;58557;50.982;-3.222;2022-10-23T07:40:46;99302.79;;;18.47;57.61
70916;BME280;58557;50.982;-3.222;2022-10-23T07:43:12;99299.55;;;17.41;59.73
70916;BME280;58557;50.982;-3.222;2022-10-23T07:45:37;99288.19;;;18.73;58.20
70916;BME280;58557;50.982;-3.222;2022-10-23T07:48:03;99280.75;;;18.55;57.79
70916;BME280;58557;50.982;-3.222;2022-10-23T07:50:29;99271.69;;;19.30;56.25
70916;BME280;58557;50.982;-3.222;2022-10-23T07:52:54;99266.06;;;19.02;55.86
70916;BME280;58557;50.982;-3.222;2022-10-23T07:55:20;99264.22;;;19.24;56.44
70916;BME280;58557;50.982;-3.222;2022-10-23T07:57:46;99261.59;;;18.29;57.84
70916;BME280;58557;50.982;-3.222;2022-10-23T08:00:11;99266.05;;;18.35;58.62
70916;BME280;58557;50.982;-3.222;2022-10-23T08:02:36;99273.70;;;19.07;57.60
70916;BME280;58557;50.982;-3.222;2022-10-23T08:05:02;99278.99;;;18.59;58.45
70916;BME280;58557;50.982;-3.222;2022-10-23T08:07:27;99275.08;;;19.29;57.20
70916;BME280;58557;50.982;-3.222;2022-10-23T08:09:53;99277.20;;;19.51;56.81
70916;BME280;58557;50.982;-3.222;2022-10-23T08:12:19;99275.35;;;19.93;55.03
70916;BME280;58557;50.982;-3.222;2022-10-23T08:14:44;99269.59;;;18.79;57.08
70916;BME280;58557;50.982;-3.222;2022-10-23T08:17:10;99265.24;;;19.63;55.47
70916;BME280;58557;50.982;-3.222;2022-10-23T08:19:36;99269.16;;;19.60;54.09
70916;BME280;58557;50.982;-3.222;2022-10-23T08:22:02;99279.70;;;20.20;52.88
70916;BME280;58557;50.982;-3.222;2022-10-23T08:24:27;99281.36;;;20.18;53.08
70916;BME280;58557;50.982;-3.222;2022-10-23T08:26:52;99277.37;;;20.05;53.64
70916;BME280;58557;50.982;-3.222;2022-10-23T08:29:18;99280.99;;;19.72;53.74
70916;BME280;58557;50.982;-3.222;2022-10-23T08:31:44;99281.08;;;18.21;57.43
70916;BME280;58557;50.982;-3.222;2022-10-23T08:34:10;99278.64;;;18.10;58.38
70916;BME280;58557;50.982;-3.222;2022-10-23T08:36:35;99276.87;;;18.09;59.23
70916;BME280;58557;50.982;-3.222;2022-10-23T08:39:01;99271.96;;;18.12;58.31
70916;BME280;58557;50.982;-3.222;2022-10-23T08:41:28;99272.15;;;19.13;58.01
70916;BME280;58557;50.982;-3.222;2022-10-23T08:43:56;99269.74;;;19.76;56.20
70916;BME280;58557;50.982;-3.222;2022-10-23T08:46:18;99271.25;;;18.53;58.23
70916;BME280;58557;50.982;-3.222;2022-10-23T08:48:45;99277.03;;;19.93;56.04
70916;BME280;58557;50.982;-3.222;2022-10-23T08:51:13;99276.47;;;20.58;54.97
70916;BME280;58557;50.982;-3.222;2022-10-23T08:53:39;99275.60;;;20.54;55.52
70916;BME280;58557;50.982;-3.222;2022-10-23T08:56:02;99274.20;;;20.15;54.83
70916;BME280;58557;50.982;-3.222;2022-10-23T08:58:31;99268.45;;;20.05;53.90
70916;BME280;58557;50.982;-3.222;2022-10-23T09:00:51;99269.82;;;20.85;53.58
70916;BME280;58557;50.982;-3.222;2022-10-23T09:03:17;99269.37;;;20.77;52.38
70916;BME280;58557;50.982;-3.222;2022-10-23T09:05:51;99264.31;;;20.56;52.66
70916;BME280;58557;50.982;-3.222;2022-10-23T09:08:19;99263.54;;;20.94;51.43
70916;BME280;58557;50.982;-3.222;2022-10-23T09:10:45;99266.92;;;20.64;51.87
70916;BME280;58557;50.982;-3.222;2022-10-23T09:13:02;99263.94;;;20.65;51.50
70916;BME280;58557;50.982;-3.222;2022-10-23T09:15:29;99263.78;;;20.88;52.94
70916;BME280;58557;50.982;-3.222;2022-10-23T09:17:56;99258.96;;;21.53;53.18
70916;BME280;58557;50.982;-3.222;2022-10-23T09:20:19;99248.95;;;21.64;53.02
70916;BME280;58557;50.982;-3.222;2022-10-23T09:22:42;99249.81;;;22.43;50.45
70916;BME280;58557;50.982;-3.222;2022-10-23T09:25:09;99249.00;;;23.08;49.75
70916;BME280;58557;50.982;-3.222;2022-10-23T09:27:33;99245.32;;;22.36;49.79
70916;BME280;58557;50.982;-3.222;2022-10-23T09:29:58;99245.35;;;21.93;52.21
70916;BME280;58557;50.982;-3.222;2022-10-23T09:32:34;99250.06;;;22.29;50.90
70916;BME280;58557;50.982;-3.222;2022-10-23T09:34:52;99243.68;;;21.46;49.55
70916;BME280;58557;50.982;-3.222;2022-10-23T09:37:21;99250.07;;;21.10;50.11
70916;BME280;58557;50.982;-3.222;2022-10-23T09:39:41;99244.71;;;21.88;49.47
70916;BME280;58557;50.982;-3.222;2022-10-23T09:42:13;99243.32;;;21.73;49.99
70916;BME280;58557;50.982;-3.222;2022-10-23T09:44:32;99246.24;;;21.32;50.35
70916;BME280;58557;50.982;-3.222;2022-10-23T09:46:59;99241.19;;;21.57;49.69
70916;BME280;58557;50.982;-3.222;2022-10-23T09:49:24;99241.98;;;21.98;47.39
70916;BME280;58557;50.982;-3.222;2022-10-23T09:51:58;99242.79;;;22.13;48.23
70916;BME280;58557;50.982;-3.222;2022-10-23T09:54:15;99249.60;;;21.29;47.85
70916;BME280;58557;50.982;-3.222;2022-10-23T09:56:40;99261.36;;;21.28;50.96
70916;BME280;58557;50.982;-3.222;2022-10-23T09:59:17;99271.90;;;21.34;49.73
70916;BME280;58557;50.982;-3.222;2022-10-23T10:01:33;99269.78;;;19.71;52.71
70916;BME280;58557;50.982;-3.222;2022-10-23T10:03:56;99268.91;;;21.18;50.97
70916;BME280;58557;50.982;-3.222;2022-10-23T10:06:23;99269.41;;;21.24;50.07
70916;BME280;58557;50.982;-3.222;2022-10-23T10:08:49;99270.08;;;20.67;49.97
70916;BME280;58557;50.982;-3.222;2022-10-23T10:11:19;99270.78;;;18.81;54.03
70916;BME280;58557;50.982;-3.222;2022-10-23T10:16:08;99267.64;;;19.70;51.54
70916;BME280;58557;50.982;-3.222;2022-10-23T10:18:34;99269.36;;;19.29;53.22
70916;BME280;58557;50.982;-3.222;2022-10-23T10:21:05;99267.26;;;19.73;52.74
70916;BME280;58557;50.982;-3.222;2022-10-23T10:23:27;99267.94;;;20.08;52.54
70916;BME280;58557;50.982;-3.222;2022-10-23T10:25:52;99268.02;;;18.94;54.65
70916;BME280;58557;50.982;-3.222;2022-10-23T10:28:24;99265.28;;;18.78;53.82
70916;BME280;58557;50.982;-3.222;2022-10-23T10:30:44;99262.64;;;19.91;52.13
70916;BME280;58557;50.982;-3.222;2022-10-23T10:33:07;99260.90;;;19.78;52.33
70916;BME280;58557;50.982;-3.222;2022-10-23T10:35:37;99262.78;;;20.43;50.78
70916;BME280;58557;50.982;-3.222;2022-10-23T10:38:08;99255.68;;;19.53;52.34
70916;BME280;58557;50.982;-3.222;2022-10-23T10:40:25;99251.38;;;19.60;51.32
70916;BME280;58557;50.982;-3.222;2022-10-23T10:42:59;99244.12;;;20.25;52.24
70916;BME280;58557;50.982;-3.222;2022-10-23T10:45:18;99241.99;;;20.25;51.05
70916;BME280;58557;50.982;-3.222;2022-10-23T10:47:40;99236.78;;;20.46;49.16
70916;BME280;58557;50.982;-3.222;2022-10-23T10:50:07;99236.23;;;19.85;50.21
70916;BME280;58557;50.982;-3.222;2022-10-23T10:52:33;99235.61;;;19.53;51.69
70916;BME280;58557;50.982;-3.222;2022-10-23T10:54:57;99233.69;;;20.14;51.13
70916;BME280;58557;50.982;-3.222;2022-10-23T10:57:27;99225.63;;;20.28;50.65
70916;BME280;58557;50.982;-3.222;2022-10-23T10:59:45;99214.85;;;20.30;49.80
70916;BME280;58557;50.982;-3.222;2022-10-23T11:02:22;99209.69;;;20.29;49.30
70916;BME280;58557;50.982;-3.222;2022-10-23T11:04:40;99212.11;;;20.70;47.26
70916;BME280;58557;50.982;-3.222;2022-10-23T11:07:06;99212.63;;;21.01;47.83
70916;BME280;58557;50.982;-3.222;2022-10-23T11:09:28;99207.89;;;20.24;48.44
70916;BME280;58557;50.982;-3.222;2022-10-23T11:11:52;99207.40;;;20.29;47.42
70916;BME280;58557;50.982;-3.222;2022-10-23T11:14:20;99200.91;;;20.40;47.24
70916;BME280;58557;50.982;-3.222;2022-10-23T11:16:46;99200.52;;;20.66;47.57
70916;BME280;58557;50.982;-3.222;2022-10-23T11:19:13;99201.66;;;21.08;44.92
70916;BME280;58557;50.982;-3.222;2022-10-23T11:21:38;99190.60;;;21.94;44.87
70916;BME280;58557;50.982;-3.222;2022-10-23T11:24:18;99187.74;;;20.94;46.08
70916;BME280;58557;50.982;-3.222;2022-10-23T11:26:34;99180.39;;;19.64;48.44
70916;BME280;58557;50.982;-3.222;2022-10-23T11:29:01;99174.93;;;19.70;48.75
70916;BME280;58557;50.982;-3.222;2022-10-23T11:31:23;99163.37;;;20.41;47.16
70916;BME280;58557;50.982;-3.222;2022-10-23T11:34:00;99162.57;;;20.45;47.64
70916;BME280;58557;50.982;-3.222;2022-10-23T11:36:12;99156.76;;;20.85;47.28
70916;BME280;58557;50.982;-3.222;2022-10-23T11:38:33;99154.14;;;20.69;47.50
70916;BME280;58557;50.982;-3.222;2022-10-23T11:40:59;99152.03;;;20.44;47.04
70916;BME280;58557;50.982;-3.222;2022-10-23T11:43:26;99145.77;;;19.69;49.21
70916;BME280;58557;50.982;-3.222;2022-10-23T11:45:48;99134.19;;;21.03;49.34
70916;BME280;58557;50.982;-3.222;2022-10-23T11:48:21;99116.59;;;21.73;44.41
70916;BME280;58557;50.982;-3.222;2022-10-23T11:50:49;99117.45;;;21.37;45.06
70916;BME280;58557;50.982;-3.222;2022-10-23T11:55:31;99130.65;;;21.42;44.71
70916;BME280;58557;50.982;-3.222;2022-10-23T11:58:09;99133.64;;;21.93;44.10
70916;BME280;58557;50.982;-3.222;2022-10-23T12:00:23;99128.99;;;21.07;44.68
70916;BME280;58557;50.982;-3.222;2022-10-23T12:02:51;99122.75;;;22.09;43.18
70916;BME280;58557;50.982;-3.222;2022-10-23T12:07:39;99121.82;;;21.60;42.92
70916;BME280;58557;50.982;-3.222;2022-10-23T12:10:06;99118.90;;;20.68;44.37
70916;BME280;58557;50.982;-3.222;2022-10-23T12:12:31;99116.15;;;20.75;46.54
70916;BME280;58557;50.982;-3.222;2022-10-23T12:15:07;99105.72;;;19.63;46.81
70916;BME280;58557;50.982;-3.222;2022-10-23T12:17:32;99100.98;;;18.40;49.23
70916;BME280;58557;50.982;-3.222;2022-10-23T12:19:47;99101.75;;;19.31;50.01
70916;BME280;58557;50.982;-3.222;2022-10-23T12:22:11;99095.85;;;19.43;48.88
70916;BME280;58557;50.982;-3.222;2022-10-23T12:24:53;99091.64;;;20.77;46.63
70916;BME280;58557;50.982;-3.222;2022-10-23T12:27:13;99090.63;;;20.39;47.73
70916;BME280;58557;50.982;-3.222;2022-10-23T12:29:36;99085.46;;;20.32;48.58
70916;BME280;58557;50.982;-3.222;2022-10-23T12:31:59;99072.60;;;19.70;48.95
70916;BME280;58557;50.982;-3.222;2022-10-23T12:34:30;99066.01;;;19.70;48.80
70916;BME280;58557;50.982;-3.222;2022-10-23T12:36:52;99058.87;;;19.56;50.61
70916;BME280;58557;50.982;-3.222;2022-10-23T12:39:26;99049.11;;;20.07;48.35
70916;BME280;58557;50.982;-3.222;2022-10-23T12:41:38;99041.44;;;19.48;50.07
70916;BME280;58557;50.982;-3.222;2022-10-23T12:44:03;99046.12;;;19.20;50.97
70916;BME280;58557;50.982;-3.222;2022-10-23T12:46:30;99041.54;;;18.83;51.35
70916;BME280;58557;50.982;-3.222;2022-10-23T12:48:53;99041.70;;;19.90;49.78